Time;durP1;ratioP1;P1;durP2;ratioP2;P2;SDS_P1;SDS_P2;PMS_P1;PMS_P2;Temp;Humidity;BMP_temperature;BMP_pressure;BME280_temperature;BME280_humidity;BME280_pressure;Samples;Min_cycle;Max_cycle;Signal;HPM_P1;HPM_P2
2023/11/24 00:01:48;;;;;;;2.08;0.93;;;12.50;90.30;;;;;;5014211;28;20026;-78
2023/11/24 00:04:14;;;;;;;2.70;1.00;;;12.50;90.30;;;;;;5013963;28;20039;-78
2023/11/24 00:06:40;;;;;;;1.48;0.90;;;12.50;90.30;;;;;;5013648;28;20041;-78
2023/11/24 00:09:06;;;;;;;1.90;0.90;;;12.50;90.30;;;;;;5013606;28;20025;-78
2023/11/24 00:11:34;;;;;;;2.38;1.08;;;12.50;90.30;;;;;;5013955;28;20018;-78
2023/11/24 00:13:59;;;;;;;2.38;0.90;;;12.50;90.30;;;;;;5013809;28;20029;-78
2023/11/24 00:16:25;;;;;;;2.00;1.02;;;12.50;90.30;;;;;;5013930;28;20403;-77
2023/11/24 00:18:51;;;;;;;2.20;1.00;;;12.50;90.30;;;;;;5013740;28;20025;-78
2023/11/24 00:21:17;;;;;;;3.80;1.10;;;12.50;90.30;;;;;;5013840;28;20750;-78
2023/11/24 00:23:42;;;;;;;1.90;1.00;;;12.50;90.30;;;;;;5013629;28;20431;-78
2023/11/24 00:26:08;;;;;;;3.40;0.90;;;12.50;90.30;;;;;;5015229;28;20563;-78
2023/11/24 00:28:36;;;;;;;2.67;1.13;;;12.50;90.30;;;;;;5017507;28;20040;-78
2023/11/24 00:31:02;;;;;;;1.92;0.90;;;12.50;90.30;;;;;;5017581;28;20048;-78
2023/11/24 00:33:28;;;;;;;2.30;0.98;;;12.50;90.30;;;;;;5017752;28;20017;-78
2023/11/24 00:35:53;;;;;;;2.85;0.98;;;12.50;90.30;;;;;;5017296;28;20017;-77
2023/11/24 00:38:19;;;;;;;2.00;1.00;;;12.50;90.30;;;;;;5017352;28;20029;-78
2023/11/24 00:40:45;;;;;;;2.75;1.00;;;12.50;90.30;;;;;;5035329;28;20128;-78
2023/11/24 00:43:11;;;;;;;2.05;1.00;;;12.50;90.30;;;;;;5017520;28;20033;-78
2023/11/24 00:45:37;;;;;;;2.10;1.08;;;12.50;90.30;;;;;;5017451;28;20025;-78
2023/11/24 00:48:05;;;;;;;3.22;1.10;;;12.50;90.30;;;;;;5016749;28;20063;-78
2023/11/24 00:50:31;;;;;;;1.85;0.85;;;12.50;90.30;;;;;;5035413;28;20113;-78
2023/11/24 00:52:58;;;;;;;1.73;0.98;;;12.50;90.30;;;;;;5017042;28;20550;-78
2023/11/24 00:55:24;;;;;;;2.40;1.00;;;12.50;90.30;;;;;;5017042;28;20037;-78
2023/11/24 00:57:49;;;;;;;3.30;1.10;;;12.50;90.30;;;;;;5016876;28;20059;-78
2023/11/24 01:00:16;;;;;;;1.50;0.85;;;12.50;90.30;;;;;;5017248;28;20029;-78
2023/11/24 01:02:41;;;;;;;3.58;0.90;;;12.50;90.30;;;;;;5034804;28;20029;-78
2023/11/24 01:05:09;;;;;;;2.30;0.80;;;12.50;90.30;;;;;;5017345;28;20036;-78
2023/11/24 01:07:35;;;;;;;1.55;0.90;;;12.50;90.30;;;;;;5016924;28;20155;-78
2023/11/24 01:10:00;;;;;;;2.78;0.90;;;12.50;90.30;;;;;;5034832;28;20491;-78
2023/11/24 01:12:26;;;;;;;2.47;1.10;;;12.50;90.30;;;;;;5016966;28;20053;-78
2023/11/24 01:14:52;;;;;;;2.63;1.10;;;12.50;90.30;;;;;;5017042;28;20076;-78
2023/11/24 01:17:18;;;;;;;1.92;0.90;;;12.50;90.30;;;;;;5034447;28;20108;-78
2023/11/24 01:19:44;;;;;;;2.10;1.00;;;12.50;90.30;;;;;;5016658;28;20035;-79
2023/11/24 01:22:09;;;;;;;2.30;0.77;;;12.50;90.30;;;;;;5034335;28;20029;-78
2023/11/24 01:24:35;;;;;;;1.42;0.88;;;12.50;90.40;;;;;;5017104;28;20114;-78
2023/11/24 01:27:03;;;;;;;1.77;0.90;;;12.50;90.30;;;;;;5016118;28;20136;-77
2023/11/24 01:29:28;;;;;;;1.63;0.77;;;12.50;90.30;;;;;;5016561;28;20120;-78
2023/11/24 01:31:54;;;;;;;3.35;1.30;;;12.50;90.30;;;;;;5016604;28;20061;-78
2023/11/24 01:34:20;;;;;;;1.27;0.85;;;12.50;90.30;;;;;;5017066;28;20022;-78
2023/11/24 01:36:45;;;;;;;2.10;0.85;;;12.50;90.30;;;;;;5015043;28;20518;-78
2023/11/24 01:39:14;;;;;;;1.98;0.93;;;12.50;90.30;;;;;;5015316;28;20428;-79
2023/11/24 01:41:40;;;;;;;2.92;0.98;;;12.50;90.40;;;;;;5033104;28;20109;-78
2023/11/24 01:44:08;;;;;;;2.30;0.95;;;12.50;90.30;;;;;;5032890;28;20116;-78
2023/11/24 01:46:33;;;;;;;1.38;0.80;;;12.50;90.30;;;;;;5015406;28;20475;-79
2023/11/24 01:49:00;;;;;;;2.58;1.08;;;12.50;90.40;;;;;;5014996;28;20061;-78
2023/11/24 01:51:26;;;;;;;1.65;0.90;;;12.50;90.40;;;;;;5015353;28;20044;-78
2023/11/24 01:53:53;;;;;;;1.27;0.95;;;12.50;90.30;;;;;;5015132;28;20045;-77
2023/11/24 01:56:20;;;;;;;2.10;0.90;;;12.50;90.30;;;;;;5015080;28;20052;-78
2023/11/24 01:58:46;;;;;;;1.35;0.70;;;12.50;90.30;;;;;;5014610;28;20116;-77
2023/11/24 02:01:12;;;;;;;4.00;1.17;;;12.50;90.30;;;;;;5014986;28;20076;-78
2023/11/24 02:03:37;;;;;;;1.23;0.80;;;12.50;90.30;;;;;;5014844;28;20491;-78
2023/11/24 02:06:05;;;;;;;2.13;0.77;;;12.50;90.30;;;;;;5014902;28;20018;-78
2023/11/24 02:08:30;;;;;;;1.75;0.77;;;12.50;90.30;;;;;;5032225;28;20040;-78
2023/11/24 02:10:56;;;;;;;2.42;0.90;;;12.50;90.40;;;;;;5014803;28;20029;-78
2023/11/24 02:13:26;;;;;;;2.53;0.98;;;12.50;90.30;;;;;;5032530;28;20104;-77
2023/11/24 02:15:52;;;;;;;1.40;0.80;;;12.50;90.30;;;;;;5014878;28;20025;-78
2023/11/24 02:18:21;;;;;;;2.03;1.00;;;12.50;90.30;;;;;;5014339;28;20026;-78
2023/11/24 02:20:47;;;;;;;2.63;0.80;;;12.50;90.30;;;;;;5014654;28;20029;-77
2023/11/24 02:23:13;;;;;;;1.25;0.80;;;12.50;90.30;;;;;;5014452;28;20505;-78
2023/11/24 02:25:38;;;;;;;1.65;0.80;;;12.50;90.30;;;;;;5014792;28;20159;-78
2023/11/24 02:28:04;;;;;;;1.95;0.88;;;12.50;90.30;;;;;;5013987;28;20026;-78
2023/11/24 02:30:30;;;;;;;1.38;0.73;;;12.50;90.40;;;;;;5014607;28;20048;-77
2023/11/24 02:32:55;;;;;;;1.60;0.80;;;12.50;90.30;;;;;;5014609;28;20025;-77
2023/11/24 02:35:21;;;;;;;2.47;0.90;;;12.50;90.30;;;;;;5032612;28;20167;-78
2023/11/24 02:37:47;;;;;;;1.38;0.80;;;12.50;90.30;;;;;;5031783;28;20033;-80
2023/11/24 02:40:12;;;;;;;2.90;0.80;;;12.50;90.30;;;;;;5014000;28;20037;-79
2023/11/24 02:42:39;;;;;;;1.75;0.90;;;12.50;90.30;;;;;;5032000;28;20037;-78
2023/11/24 02:45:05;;;;;;;2.25;0.80;;;12.50;90.30;;;;;;5031820;28;20021;-78
2023/11/24 02:47:31;;;;;;;3.72;1.35;;;12.50;90.30;;;;;;5013864;28;20198;-79
2023/11/24 02:49:57;;;;;;;2.67;0.75;;;12.50;90.30;;;;;;5013611;28;20076;-79
2023/11/24 02:52:22;;;;;;;2.45;1.08;;;12.50;90.30;;;;;;5032003;28;20025;-78
2023/11/24 02:54:48;;;;;;;2.53;0.93;;;12.50;90.30;;;;;;5014003;28;20103;-78
2023/11/24 02:57:14;;;;;;;3.35;0.70;;;12.50;90.30;;;;;;5031430;28;20124;-77
2023/11/24 02:59:40;;;;;;;2.03;0.80;;;12.50;90.30;;;;;;5013821;28;20022;-78
2023/11/24 03:02:05;;;;;;;2.30;0.77;;;12.50;90.30;;;;;;5031289;28;20032;-78
2023/11/24 03:04:32;;;;;;;3.25;1.00;;;12.50;90.30;;;;;;5013880;28;20569;-78
2023/11/24 03:06:58;;;;;;;2.05;0.70;;;12.50;90.30;;;;;;5013502;28;20226;-78
2023/11/24 03:09:24;;;;;;;2.70;1.00;;;12.50;90.30;;;;;;5013880;28;20028;-77
2023/11/24 03:11:52;;;;;;;1.42;0.70;;;12.50;90.30;;;;;;5010473;28;20094;-78
2023/11/24 03:14:20;;;;;;;2.13;0.98;;;12.50;90.30;;;;;;5013440;28;20033;-79
2023/11/24 03:16:46;;;;;;;2.22;0.82;;;12.50;90.30;;;;;;5013626;28;20029;-78
2023/11/24 03:19:12;;;;;;;3.20;1.08;;;12.50;90.30;;;;;;5031139;28;20080;-78
2023/11/24 03:21:38;;;;;;;2.10;0.80;;;12.50;90.30;;;;;;5013277;28;20038;-78
2023/11/24 03:24:04;;;;;;;2.13;0.80;;;12.50;90.30;;;;;;5014038;28;20023;-78
2023/11/24 03:26:30;;;;;;;1.13;0.55;;;12.50;90.30;;;;;;5014157;28;20090;-78
2023/11/24 03:28:55;;;;;;;3.28;1.00;;;12.50;90.30;;;;;;5014129;28;20026;-78
2023/11/24 03:31:21;;;;;;;2.38;0.80;;;12.50;90.30;;;;;;5014271;28;20032;-78
2023/11/24 03:33:46;;;;;;;2.47;0.90;;;12.50;90.30;;;;;;5013966;28;20060;-78
2023/11/24 03:36:12;;;;;;;1.70;0.73;;;12.50;90.30;;;;;;5014029;28;20059;-78
2023/11/24 03:38:38;;;;;;;2.78;0.90;;;12.50;90.30;;;;;;5031584;28;20036;-78
2023/11/24 03:41:05;;;;;;;1.80;0.90;;;12.50;90.30;;;;;;5014048;28;20116;-78
2023/11/24 03:43:30;;;;;;;2.13;0.70;;;12.50;90.30;;;;;;5014138;28;20463;-78
2023/11/24 03:45:56;;;;;;;2.75;0.90;;;12.50;90.30;;;;;;5014112;28;20026;-78
2023/11/24 03:48:22;;;;;;;1.60;0.80;;;12.50;90.30;;;;;;5013736;28;20434;-78
2023/11/24 03:50:51;;;;;;;2.55;0.73;;;12.50;90.30;;;;;;5031660;28;20057;-79
2023/11/24 03:53:17;;;;;;;1.92;0.82;;;12.50;90.30;;;;;;5013855;28;20018;-78
2023/11/24 03:55:43;;;;;;;1.70;0.82;;;12.50;90.30;;;;;;5013878;28;20028;-77
2023/11/24 03:58:09;;;;;;;1.85;0.63;;;12.50;90.30;;;;;;5013330;28;20116;-78
2023/11/24 04:00:35;;;;;;;2.95;1.00;;;12.50;90.30;;;;;;5012828;28;20025;-78
2023/11/24 04:03:01;;;;;;;2.22;0.95;;;12.50;90.30;;;;;;5013769;28;20080;-78
2023/11/24 04:05:27;;;;;;;1.77;0.80;;;12.50;90.30;;;;;;5013778;28;20030;-78
2023/11/24 04:07:53;;;;;;;2.00;0.98;;;12.50;90.50;;;;;;5030619;28;20033;-78
2023/11/24 04:10:18;;;;;;;3.00;0.95;;;12.50;90.30;;;;;;5031432;28;20122;-78
2023/11/24 04:12:44;;;;;;;2.33;0.90;;;12.50;90.30;;;;;;5013600;28;20026;-77
2023/11/24 04:15:10;;;;;;;2.33;1.00;;;12.50;90.30;;;;;;5031538;28;20017;-78
2023/11/24 04:17:36;;;;;;;2.45;0.70;;;12.50;90.30;;;;;;5013609;28;20483;-77
2023/11/24 04:20:02;;;;;;;1.63;0.77;;;12.50;90.30;;;;;;5031399;28;20041;-78
2023/11/24 04:22:27;;;;;;;2.08;0.73;;;12.50;90.30;;;;;;5013307;28;20037;-78
2023/11/24 04:24:53;;;;;;;2.40;0.88;;;12.50;90.30;;;;;;5031225;28;20033;-77
2023/11/24 04:27:19;;;;;;;2.13;0.80;;;12.50;90.30;;;;;;5013285;28;20030;-78
2023/11/24 04:29:45;;;;;;;2.15;0.95;;;12.50;90.30;;;;;;5013277;28;20029;-78
2023/11/24 04:32:11;;;;;;;1.95;0.80;;;12.50;90.30;;;;;;5007398;28;20014;-78
2023/11/24 04:34:37;;;;;;;2.70;0.88;;;12.50;90.30;;;;;;5010583;28;20036;-78
2023/11/24 04:37:03;;;;;;;1.90;0.70;;;12.50;90.30;;;;;;5030714;28;20040;-77
2023/11/24 04:39:29;;;;;;;1.08;0.70;;;12.50;90.30;;;;;;5013127;28;20492;-78
2023/11/24 04:41:54;;;;;;;2.08;0.60;;;12.50;90.30;;;;;;5013209;28;20457;-77
2023/11/24 04:44:20;;;;;;;2.28;0.80;;;12.50;90.30;;;;;;5013254;28;20521;-79
2023/11/24 04:46:46;;;;;;;2.65;0.75;;;12.50;90.30;;;;;;5012886;28;20065;-78
2023/11/24 04:49:11;;;;;;;2.50;0.80;;;12.50;90.30;;;;;;5012814;28;20064;-78
2023/11/24 04:51:37;;;;;;;2.08;0.70;;;12.50;90.30;;;;;;5030822;28;20033;-76
2023/11/24 04:54:03;;;;;;;2.03;0.75;;;12.50;90.30;;;;;;5031010;28;20098;-78
2023/11/24 04:56:29;;;;;;;2.20;0.73;;;12.50;90.30;;;;;;5030982;28;20021;-78
2023/11/24 04:58:55;;;;;;;3.65;0.85;;;12.50;90.30;;;;;;5012552;28;20116;-78
2023/11/24 05:01:20;;;;;;;1.90;0.80;;;12.50;90.30;;;;;;5030856;28;20160;-78
2023/11/24 05:03:49;;;;;;;2.67;0.80;;;12.50;90.30;;;;;;5031085;28;20021;-78
2023/11/24 05:06:16;;;;;;;1.77;0.70;;;12.50;90.30;;;;;;5031116;28;20018;-77
2023/11/24 05:08:41;;;;;;;1.50;0.70;;;12.50;90.30;;;;;;5030776;28;20097;-78
2023/11/24 05:11:07;;;;;;;2.33;0.70;;;12.50;90.30;;;;;;5013458;28;20140;-78
2023/11/24 05:13:33;;;;;;;2.35;0.80;;;12.50;90.30;;;;;;5034402;28;20048;-77
2023/11/24 05:15:59;;;;;;;1.98;0.63;;;12.50;90.30;;;;;;5016840;28;20021;-78
2023/11/24 05:18:24;;;;;;;2.28;0.85;;;12.50;90.30;;;;;;5006394;28;20526;-78
2023/11/24 05:20:51;;;;;;;3.50;0.88;;;12.50;90.30;;;;;;5006175;28;20033;-79
2023/11/24 05:23:16;;;;;;;2.35;0.77;;;12.50;90.30;;;;;;5021462;28;20041;-78
2023/11/24 05:25:42;;;;;;;4.30;1.25;;;12.50;90.30;;;;;;5022279;28;20522;-79
2023/11/24 05:28:08;;;;;;;1.13;0.65;;;12.50;90.30;;;;;;5004061;28;20323;-77
2023/11/24 05:30:34;;;;;;;1.25;0.60;;;12.50;90.30;;;;;;5002294;28;20514;-79
2023/11/24 05:33:03;;;;;;;2.10;0.82;;;12.50;90.30;;;;;;5016195;28;20025;-77
2023/11/24 05:35:29;;;;;;;2.08;0.70;;;12.40;90.30;;;;;;5008411;28;20030;-77
2023/11/24 05:37:55;;;;;;;2.83;0.80;;;12.50;90.30;;;;;;5009691;28;20032;-78
2023/11/24 05:40:21;;;;;;;2.90;0.70;;;12.40;90.30;;;;;;5042318;28;20525;-78
2023/11/24 05:42:46;;;;;;;1.98;0.60;;;12.50;90.30;;;;;;5010800;28;20073;-79
2023/11/24 05:45:14;;;;;;;1.88;0.90;;;12.50;90.30;;;;;;5010848;28;20112;-79
2023/11/24 05:47:41;;;;;;;3.45;0.80;;;12.50;90.30;;;;;;5010651;28;20030;-79
2023/11/24 05:50:07;;;;;;;2.67;0.80;;;12.50;90.30;;;;;;5009790;28;20022;-79
2023/11/24 05:52:33;;;;;;;2.83;0.75;;;12.50;90.30;;;;;;5028540;28;20014;-80
2023/11/24 05:55:00;;;;;;;3.05;0.70;;;12.50;90.30;;;;;;5007845;28;20026;-78
2023/11/24 05:57:27;;;;;;;2.22;0.80;;;12.50;90.30;;;;;;5009503;28;20033;-80
2023/11/24 05:59:52;;;;;;;3.08;0.80;;;12.40;90.30;;;;;;5009705;28;20042;-79
2023/11/24 06:02:18;;;;;;;1.48;0.63;;;12.50;90.30;;;;;;5010181;28;20033;-79
2023/11/24 06:04:43;;;;;;;1.45;0.70;;;12.50;90.30;;;;;;5009881;28;20029;-78
2023/11/24 06:07:09;;;;;;;2.53;0.60;;;12.40;90.30;;;;;;5010044;28;20515;-78
2023/11/24 06:09:35;;;;;;;1.85;0.80;;;12.50;90.30;;;;;;5009905;28;20565;-77
2023/11/24 06:12:01;;;;;;;2.95;0.80;;;12.50;90.30;;;;;;5010858;28;20063;-78
2023/11/24 06:14:26;;;;;;;2.90;0.90;;;12.50;90.30;;;;;;5011230;28;20454;-76
2023/11/24 06:16:52;;;;;;;3.35;1.02;;;12.50;90.30;;;;;;5010321;28;20168;-76
2023/11/24 06:19:18;;;;;;;2.17;0.70;;;12.50;90.30;;;;;;5011540;28;20087;-78
2023/11/24 06:21:44;;;;;;;1.95;0.70;;;12.50;90.30;;;;;;5011529;28;20025;-77
2023/11/24 06:24:09;;;;;;;2.63;0.70;;;12.50;90.30;;;;;;5012688;28;20037;-77
2023/11/24 06:26:35;;;;;;;2.45;0.68;;;12.40;90.30;;;;;;5015890;28;20038;-78
2023/11/24 06:29:00;;;;;;;1.55;0.60;;;12.50;90.30;;;;;;5015171;28;20024;-78
2023/11/24 06:31:26;;;;;;;1.38;0.55;;;12.50;90.30;;;;;;5014658;28;20415;-78
2023/11/24 06:33:51;;;;;;;1.92;0.57;;;12.50;90.30;;;;;;5014544;28;20021;-78
2023/11/24 06:36:17;;;;;;;2.45;0.60;;;12.40;90.30;;;;;;5014156;28;20039;-78
2023/11/24 06:38:42;;;;;;;2.15;0.77;;;12.50;90.30;;;;;;5014040;28;20406;-78
2023/11/24 06:41:08;;;;;;;1.25;0.65;;;12.50;90.30;;;;;;5014468;28;20029;-78
2023/11/24 06:43:34;;;;;;;1.65;0.50;;;12.40;90.30;;;;;;5014506;28;20036;-78
2023/11/24 06:46:05;;;;;;;2.53;0.90;;;12.50;90.30;;;;;;5014585;28;20056;-78
2023/11/24 06:48:31;;;;;;;1.73;0.70;;;12.50;90.30;;;;;;5013939;28;20116;-78
2023/11/24 06:50:58;;;;;;;1.25;0.60;;;12.40;90.30;;;;;;5014427;28;20573;-78
2023/11/24 06:53:24;;;;;;;2.13;0.85;;;12.40;90.30;;;;;;5014175;28;20028;-78
2023/11/24 06:55:49;;;;;;;2.70;0.90;;;12.50;90.30;;;;;;5014070;28;20029;-78
2023/11/24 06:58:15;;;;;;;1.92;0.68;;;12.50;90.30;;;;;;5031702;28;20025;-79
2023/11/24 07:00:40;;;;;;;1.98;0.70;;;12.50;90.30;;;;;;5014108;28;20026;-78
2023/11/24 07:03:06;;;;;;;1.98;0.70;;;12.50;90.30;;;;;;5014365;28;20120;-78
2023/11/24 07:05:32;;;;;;;3.53;1.13;;;12.50;90.30;;;;;;5031912;28;20025;-78
2023/11/24 07:07:57;;;;;;;1.83;0.82;;;12.40;90.50;;;;;;5013736;28;20047;-78
2023/11/24 07:10:26;;;;;;;2.25;0.60;;;12.50;90.30;;;;;;5013764;28;20064;-77
2023/11/24 07:12:52;;;;;;;1.80;0.73;;;12.40;90.30;;;;;;5031573;28;20020;-78
2023/11/24 07:15:18;;;;;;;1.73;0.70;;;12.50;90.30;;;;;;5014024;28;20029;-78
2023/11/24 07:17:43;;;;;;;2.47;0.75;;;12.50;90.30;;;;;;5031267;28;20025;-78
2023/11/24 07:20:11;;;;;;;3.42;0.52;;;12.50;90.30;;;;;;5014040;28;20415;-79
2023/11/24 07:22:37;;;;;;;1.75;0.75;;;12.50;90.30;;;;;;5031272;28;20395;-78
2023/11/24 07:25:03;;;;;;;2.80;0.90;;;12.50;90.30;;;;;;5031468;28;20137;-78
2023/11/24 07:27:28;;;;;;;2.40;0.70;;;12.50;90.30;;;;;;5030942;28;20112;-78
2023/11/24 07:29:55;;;;;;;1.55;0.70;;;12.40;90.30;;;;;;5013823;28;20153;-78
2023/11/24 07:32:24;;;;;;;1.55;0.63;;;12.50;90.30;;;;;;5013634;28;20454;-78
2023/11/24 07:34:50;;;;;;;2.33;0.77;;;12.50;90.30;;;;;;5013081;28;20029;-78
2023/11/24 07:37:15;;;;;;;1.38;0.70;;;12.40;90.30;;;;;;5013492;28;20029;-78
2023/11/24 07:39:41;;;;;;;2.22;0.60;;;12.40;90.30;;;;;;5013396;28;20120;-78
2023/11/24 07:42:06;;;;;;;1.48;0.60;;;12.50;90.30;;;;;;5013389;28;20026;-79
2023/11/24 07:44:33;;;;;;;2.50;0.55;;;12.40;90.30;;;;;;5011248;28;20061;-81
2023/11/24 07:46:59;;;;;;;1.67;0.60;;;12.50;90.30;;;;;;5008207;28;20061;-78
2023/11/24 07:49:25;;;;;;;1.20;0.50;;;12.50;90.30;;;;;;5007886;28;20123;-77
2023/11/24 07:51:51;;;;;;;2.05;0.60;;;12.50;90.30;;;;;;5025575;28;20503;-78
2023/11/24 07:54:17;;;;;;;1.63;0.50;;;12.40;90.30;;;;;;5008489;28;20045;-78
2023/11/24 07:56:42;;;;;;;2.67;0.73;;;12.50;90.30;;;;;;5005787;28;20483;-78
2023/11/24 07:59:11;;;;;;;1.05;0.50;;;12.40;90.30;;;;;;5012015;28;20690;-78
2023/11/24 08:01:38;;;;;;;1.73;0.60;;;12.40;90.30;;;;;;5011259;28;20677;-77
2023/11/24 08:04:04;;;;;;;1.88;0.60;;;12.50;90.30;;;;;;5025962;28;20029;-78
2023/11/24 08:06:30;;;;;;;1.75;0.68;;;12.50;90.30;;;;;;5007847;28;20129;-77
2023/11/24 08:08:56;;;;;;;2.38;0.90;;;12.50;90.30;;;;;;5007699;28;20015;-78
2023/11/24 08:11:23;;;;;;;1.30;0.50;;;12.50;90.30;;;;;;5007335;28;20022;-78
2023/11/24 08:13:49;;;;;;;2.92;0.88;;;12.50;90.30;;;;;;5006858;28;20025;-78
2023/11/24 08:16:14;;;;;;;1.52;0.57;;;12.50;90.30;;;;;;5007357;28;20051;-76
2023/11/24 08:18:40;;;;;;;2.17;0.57;;;12.40;90.30;;;;;;5006981;28;20030;-77
2023/11/24 08:21:06;;;;;;;2.38;0.80;;;12.40;90.30;;;;;;5024941;28;20034;-76
2023/11/24 08:23:31;;;;;;;1.67;0.52;;;12.50;90.40;;;;;;5008490;28;20476;-78
2023/11/24 08:25:57;;;;;;;1.73;0.60;;;12.50;90.40;;;;;;5009337;28;20026;-77
2023/11/24 08:28:22;;;;;;;2.65;0.73;;;12.40;90.20;;;;;;5008132;28;20056;-78
2023/11/24 08:30:49;;;;;;;3.50;0.80;;;12.40;90.20;;;;;;5007744;28;20061;-78
2023/11/24 08:33:15;;;;;;;1.67;0.60;;;12.40;90.10;;;;;;5024767;28;20030;-77
2023/11/24 08:35:40;;;;;;;1.23;0.40;;;12.40;90.10;;;;;;5005858;28;20112;-78
2023/11/24 08:38:06;;;;;;;2.00;0.60;;;12.40;90.10;;;;;;5006228;28;20057;-78
2023/11/24 08:40:32;;;;;;;1.00;0.50;;;12.50;90.20;;;;;;5009551;28;20108;-79
2023/11/24 08:42:58;;;;;;;1.65;0.50;;;12.50;90.20;;;;;;5008966;28;20152;-78
2023/11/24 08:45:24;;;;;;;1.80;0.60;;;12.50;90.20;;;;;;5024600;28;20541;-79
2023/11/24 08:47:50;;;;;;;3.22;0.65;;;12.40;90.20;;;;;;5031112;28;20934;-77
2023/11/24 08:50:16;;;;;;;1.95;0.80;;;12.40;90.20;;;;;;5032678;28;20029;-80
2023/11/24 08:52:42;;;;;;;1.40;0.50;;;12.40;90.20;;;;;;5032829;28;20107;-77
2023/11/24 08:55:44;;;;;;;1.92;0.50;;;12.40;90.20;;;;;;5032184;28;20124;-82
2023/11/24 08:58:09;;;;;;;1.98;0.70;;;12.50;90.20;;;;;;5031788;28;20026;-78
2023/11/24 09:00:35;;;;;;;2.35;0.73;;;12.50;90.20;;;;;;5031751;28;20036;-77
2023/11/24 09:03:02;;;;;;;2.80;0.90;;;12.40;90.20;;;;;;5047923;28;20378;-77
2023/11/24 09:05:27;;;;;;;2.30;0.65;;;12.50;90.20;;;;;;5053079;28;20025;-78
2023/11/24 09:07:54;;;;;;;1.88;0.60;;;12.40;90.20;;;;;;5053389;28;20036;-78
2023/11/24 09:10:19;;;;;;;1.10;0.60;;;12.50;90.30;;;;;;5035977;28;20036;-78
2023/11/24 09:12:45;;;;;;;1.92;0.60;;;12.40;90.30;;;;;;5035839;28;20025;-77
2023/11/24 09:15:11;;;;;;;1.98;0.68;;;12.40;90.20;;;;;;5053560;28;20047;-77
2023/11/24 09:17:37;;;;;;;2.13;0.60;;;12.40;90.30;;;;;;5035479;28;20033;-78
2023/11/24 09:20:06;;;;;;;1.27;0.40;;;12.40;90.20;;;;;;5035433;28;20051;-80
2023/11/24 09:22:31;;;;;;;1.63;0.60;;;12.40;90.30;;;;;;5053399;28;20029;-77
2023/11/24 09:25:01;;;;;;;2.47;0.70;;;12.40;90.30;;;;;;5035773;28;20372;-78
2023/11/24 09:27:26;;;;;;;1.48;0.70;;;12.40;90.30;;;;;;5035239;28;20453;-78
2023/11/24 09:29:52;;;;;;;2.10;0.50;;;12.40;90.30;;;;;;5035452;28;20021;-77
2023/11/24 09:32:17;;;;;;;1.98;0.75;;;12.40;90.30;;;;;;5035411;28;20065;-78
2023/11/24 09:34:44;;;;;;;2.22;0.52;;;12.40;90.30;;;;;;5035231;28;20483;-78
2023/11/24 09:37:09;;;;;;;0.95;0.45;;;12.40;90.30;;;;;;5052949;28;20025;-78
2023/11/24 09:39:35;;;;;;;1.70;0.60;;;12.50;90.30;;;;;;5035237;28;20544;-77
2023/11/24 09:42:03;;;;;;;0.50;0.40;;;12.40;90.30;;;;;;5053181;28;20025;-77
2023/11/24 09:44:29;;;;;;;2.10;0.60;;;12.40;90.30;;;;;;5035062;28;20044;-78
2023/11/24 09:46:56;;;;;;;2.08;0.60;;;12.40;90.30;;;;;;5052867;28;20475;-77
2023/11/24 09:49:24;;;;;;;1.65;0.60;;;12.40;90.30;;;;;;5052715;28;20059;-78
2023/11/24 09:51:50;;;;;;;2.28;0.82;;;12.40;90.30;;;;;;5035309;28;20021;-78
2023/11/24 09:54:17;;;;;;;1.08;0.52;;;12.50;90.30;;;;;;5035070;28;20025;-77
2023/11/24 09:56:43;;;;;;;1.63;0.50;;;12.40;90.30;;;;;;5052863;28;20071;-78
2023/11/24 09:59:09;;;;;;;1.02;0.50;;;12.40;90.30;;;;;;5033387;28;20013;-78
2023/11/24 10:01:36;;;;;;;2.05;0.43;;;12.50;90.30;;;;;;5034869;28;20029;-77
2023/11/24 10:04:03;;;;;;;2.00;0.50;;;12.40;90.30;;;;;;5034730;28;20025;-77
2023/11/24 10:06:29;;;;;;;1.20;0.50;;;12.40;90.30;;;;;;5034726;28;20037;-78
2023/11/24 10:08:56;;;;;;;2.35;0.55;;;12.50;90.30;;;;;;5052233;28;20025;-77
2023/11/24 10:11:33;;;;;;;2.08;0.60;;;12.50;90.20;;;;;;5052453;28;20044;-79
2023/11/24 10:13:59;;;;;;;1.35;0.57;;;12.50;90.20;;;;;;5052643;28;20052;-78
2023/11/24 10:16:25;;;;;;;1.60;0.50;;;12.50;90.20;;;;;;5034428;28;20025;-77
2023/11/24 10:18:51;;;;;;;1.52;0.70;;;12.60;90.20;;;;;;5052554;28;20403;-77
2023/11/24 10:21:18;;;;;;;2.00;0.60;;;12.50;90.20;;;;;;5052286;28;20053;-77
2023/11/24 10:23:44;;;;;;;2.03;0.60;;;12.50;90.20;;;;;;5034399;28;20025;-78
2023/11/24 10:26:15;;;;;;;1.20;0.60;;;12.50;90.20;;;;;;5034568;28;20035;-77
2023/11/24 10:28:41;;;;;;;0.57;0.40;;;12.50;90.20;;;;;;5051792;28;20517;-78
2023/11/24 10:31:07;;;;;;;1.60;0.55;;;12.50;90.20;;;;;;5052377;28;20449;-78
2023/11/24 10:33:33;;;;;;;0.70;0.45;;;12.50;90.20;;;;;;5034708;28;20434;-78
2023/11/24 10:35:59;;;;;;;0.90;0.40;;;12.50;90.20;;;;;;5052157;28;20044;-78
2023/11/24 10:38:31;;;;;;;0.98;0.50;;;12.50;90.20;;;;;;5033780;28;20483;-78
2023/11/24 10:40:58;;;;;;;0.75;0.50;;;12.50;90.20;;;;;;5042767;28;20032;-77
2023/11/24 10:43:24;;;;;;;1.95;0.60;;;12.50;90.20;;;;;;5031810;28;20056;-78
2023/11/24 10:45:51;;;;;;;1.55;0.57;;;12.50;90.20;;;;;;5014165;28;20026;-77
2023/11/24 10:48:40;;;;;;;1.80;0.60;;;12.50;90.20;;;;;;5031617;28;20025;-78
2023/11/24 10:51:13;;;;;;;1.33;0.70;;;12.50;90.20;;;;;;5031684;28;20543;-77
2023/11/24 10:53:48;;;;;;;2.38;0.73;;;12.50;90.30;;;;;;5014258;28;20032;-78
2023/11/24 10:56:16;;;;;;;1.05;0.40;;;12.50;90.20;;;;;;5014080;28;20021;-79
2023/11/24 10:58:46;;;;;;;2.45;0.70;;;12.50;90.30;;;;;;5014044;28;20076;-78
2023/11/24 11:01:16;;;;;;;0.82;0.40;;;12.50;90.20;;;;;;5013992;28;20048;-78
2023/11/24 11:03:43;;;;;;;1.17;0.50;;;12.60;90.10;;;;;;5014041;28;20032;-77
2023/11/24 11:06:33;;;;;;;1.38;0.47;;;12.60;90.10;;;;;;5031699;28;20025;-78
2023/11/24 11:12:29;;;;;;;1.13;0.40;;;12.70;90.10;;;;;;5031784;28;20076;-78
2023/11/24 11:14:56;;;;;;;1.88;0.55;;;12.80;90.00;;;;;;5031836;28;20018;-77
2023/11/24 11:17:25;;;;;;;2.03;0.60;;;12.80;89.70;;;;;;5013676;28;20419;-80
2023/11/24 11:20:09;;;;;;;1.08;0.40;;;12.80;89.40;;;;;;5014474;28;20033;-77
2023/11/24 11:22:36;;;;;;;1.40;0.75;;;12.90;89.30;;;;;;5014040;28;20490;-78
2023/11/24 11:25:23;;;;;;;1.23;0.43;;;12.90;89.10;;;;;;5014273;28;20053;-79
2023/11/24 11:27:49;;;;;;;1.15;0.50;;;13.00;89.00;;;;;;5031753;28;20073;-78
2023/11/24 11:30:19;;;;;;;0.95;0.52;;;13.00;89.50;;;;;;5014260;28;20083;-78
2023/11/24 11:32:44;;;;;;;1.35;0.55;;;13.00;88.90;;;;;;5031734;28;20101;-78
2023/11/24 11:35:10;;;;;;;1.45;0.45;;;13.00;88.80;;;;;;5013823;28;20132;-78
2023/11/24 11:37:36;;;;;;;0.85;0.30;;;13.10;88.80;;;;;;5013786;28;20032;-78
2023/11/24 11:40:12;;;;;;;0.80;0.40;;;13.10;88.70;;;;;;5031655;28;20438;-78
2023/11/24 11:42:58;;;;;;;1.25;0.60;;;13.10;88.70;;;;;;5031723;28;20044;-77
2023/11/24 11:45:30;;;;;;;1.02;0.47;;;13.10;88.70;;;;;;5013743;28;20045;-78
2023/11/24 11:48:02;;;;;;;1.40;0.60;;;13.10;88.80;;;;;;5013377;28;20369;-78
2023/11/24 11:50:29;;;;;;;1.70;0.50;;;13.00;89.00;;;;;;5031789;28;20491;-78
2023/11/24 11:53:00;;;;;;;0.77;0.45;;;13.00;89.00;;;;;;5013967;28;20052;-78
2023/11/24 11:55:28;;;;;;;1.10;0.60;;;13.00;89.00;;;;;;5013559;28;20026;-77
2023/11/24 11:57:54;;;;;;;2.42;0.70;;;13.00;89.00;;;;;;5031411;28;20083;-78
2023/11/24 12:00:39;;;;;;;1.50;0.60;;;13.00;89.10;;;;;;5013459;28;20032;-79
2023/11/24 12:03:05;;;;;;;1.30;0.45;;;13.00;89.10;;;;;;5013394;28;20026;-77
2023/11/24 12:05:32;;;;;;;1.38;0.50;;;13.00;89.20;;;;;;5031062;28;20033;-78
2023/11/24 12:07:58;;;;;;;0.70;0.40;;;13.00;89.20;;;;;;5012982;28;20033;-78
2023/11/24 12:10:29;;;;;;;1.40;0.45;;;12.90;89.30;;;;;;5030918;28;20026;-78
2023/11/24 12:12:55;;;;;;;1.80;0.65;;;12.90;89.30;;;;;;5013706;28;20025;-78
2023/11/24 12:15:20;;;;;;;2.03;0.60;;;12.90;89.40;;;;;;5013235;28;20376;-78
2023/11/24 12:17:55;;;;;;;1.67;0.70;;;12.90;89.50;;;;;;5013172;28;20026;-78
2023/11/24 12:20:22;;;;;;;1.23;0.47;;;12.90;89.50;;;;;;5013561;28;20041;-78
2023/11/24 12:22:48;;;;;;;2.35;0.60;;;12.90;89.60;;;;;;5015861;28;20030;-77
2023/11/24 12:25:14;;;;;;;2.03;0.60;;;12.80;89.60;;;;;;5035074;28;20036;-78
2023/11/24 12:27:43;;;;;;;1.60;0.50;;;12.80;89.70;;;;;;5016903;28;20034;-78
2023/11/24 12:30:11;;;;;;;1.92;0.50;;;12.80;89.70;;;;;;5017031;28;20025;-77
2023/11/24 12:32:37;;;;;;;1.13;0.60;;;12.80;89.80;;;;;;5034841;28;20075;-78
2023/11/24 12:35:08;;;;;;;1.63;0.40;;;12.80;89.80;;;;;;5016909;28;20018;-78
2023/11/24 12:37:34;;;;;;;1.10;0.60;;;12.80;89.80;;;;;;5016464;28;20026;-77
2023/11/24 12:40:03;;;;;;;0.95;0.32;;;12.70;89.80;;;;;;5016919;28;20021;-77
2023/11/24 12:42:30;;;;;;;1.83;0.50;;;12.70;89.80;;;;;;5016750;28;20033;-78
2023/11/24 12:44:58;;;;;;;1.95;0.50;;;12.70;89.80;;;;;;5016922;28;20029;-78
2023/11/24 12:47:25;;;;;;;2.55;0.70;;;12.70;89.90;;;;;;5016370;28;20025;-78
2023/11/24 12:49:53;;;;;;;3.88;0.65;;;12.70;89.90;;;;;;5016377;28;20550;-77